createdAt,value
2022-08-23T04:30:45.482Z,17.63
2022-08-23T04:31:45.476Z,17.64
2022-08-23T04:32:45.459Z,17.58
2022-08-23T04:33:45.453Z,17.58
2022-08-23T04:34:51.499Z,17.55
2022-08-23T04:35:46.415Z,17.59
2022-08-23T04:36:50.063Z,17.62
2022-08-23T04:37:46.393Z,17.59
2022-08-23T04:38:45.405Z,17.59
2022-08-23T04:39:45.406Z,17.63
2022-08-23T04:40:46.365Z,17.59
2022-08-23T04:41:45.347Z,17.59
2022-08-23T04:42:45.345Z,17.55
2022-08-23T04:43:45.337Z,17.62
2022-08-23T04:44:45.322Z,17.68
2022-08-23T04:45:45.351Z,17.59
2022-08-23T04:46:45.342Z,17.66
2022-08-23T04:47:45.288Z,17.72
2022-08-23T04:48:45.293Z,17.64
2022-08-23T04:49:45.377Z,17.72
2022-08-23T04:50:45.253Z,17.74
2022-08-23T04:51:53.520Z,17.64
2022-08-23T04:52:46.275Z,17.71
2022-08-23T04:53:45.227Z,17.72
2022-08-23T04:54:45.211Z,17.59
2022-08-23T04:55:45.207Z,17.64
2022-08-23T04:56:45.198Z,17.63
2022-08-23T04:57:45.208Z,17.63
2022-08-23T04:58:45.163Z,17.63
2022-08-23T04:59:45.149Z,17.62
2022-08-23T05:00:49.542Z,17.68
2022-08-23T05:01:46.132Z,17.72
2022-08-23T05:02:45.166Z,17.75
2022-08-23T05:03:45.109Z,17.72
2022-08-23T05:04:45.116Z,17.66
2022-08-23T05:05:45.131Z,17.79
2022-08-23T05:06:45.077Z,17.77
2022-08-23T05:07:45.076Z,17.71
2022-08-23T05:08:45.092Z,17.78
2022-08-23T05:09:45.044Z,17.79
2022-08-23T05:10:45.033Z,17.82
2022-08-23T05:11:45.080Z,17.86
2022-08-23T05:12:45.011Z,17.82
2022-08-23T05:13:45.021Z,17.81
2022-08-23T05:14:44.988Z,17.81
2022-08-23T05:15:44.978Z,17.96
2022-08-23T05:16:44.995Z,17.93
2022-08-23T05:17:44.977Z,17.93
2022-08-23T05:18:44.940Z,17.93
2022-08-23T05:19:47.304Z,17.96
2022-08-23T05:20:44.950Z,17.96
2022-08-23T05:21:44.932Z,17.97
2022-08-23T05:22:44.903Z,18.02
2022-08-23T05:23:44.963Z,18.00
2022-08-23T05:24:45.873Z,18.00
2022-08-23T05:25:44.885Z,17.97
2022-08-23T05:26:44.856Z,18.10
2022-08-23T05:27:44.854Z,18.12
2022-08-23T05:28:44.916Z,18.17
2022-08-23T05:29:44.824Z,18.21
2022-08-23T05:30:56.433Z,18.20
2022-08-23T05:31:46.264Z,18.25
2022-08-23T05:32:44.785Z,18.29
2022-08-23T05:33:44.775Z,18.30
2022-08-23T05:34:44.780Z,18.35
2022-08-23T05:35:44.766Z,18.35
2022-08-23T05:36:48.365Z,18.36
2022-08-23T05:37:45.730Z,18.44
2022-08-23T05:38:44.719Z,18.45
2022-08-23T05:39:44.772Z,18.37
2022-08-23T05:40:44.723Z,18.52
2022-08-23T05:41:44.752Z,18.54
2022-08-23T05:42:44.672Z,18.52
2022-08-23T05:43:44.666Z,18.35
2022-08-23T05:44:44.660Z,18.42
2022-08-23T05:45:44.648Z,18.48
2022-08-23T05:46:44.636Z,18.52
2022-08-23T05:47:44.651Z,18.50
2022-08-23T05:48:44.618Z,18.54
2022-08-23T05:49:44.602Z,18.65
2022-08-23T05:50:44.594Z,18.65
2022-08-23T05:51:44.598Z,18.65
2022-08-23T05:52:50.397Z,18.66
2022-08-23T05:53:45.570Z,18.69
2022-08-23T05:54:44.547Z,18.65
2022-08-23T05:55:44.533Z,18.80
2022-08-23T05:56:45.229Z,18.82
2022-08-23T05:57:44.520Z,18.91
2022-08-23T05:58:44.505Z,18.98
2022-08-23T05:59:44.520Z,18.91
2022-08-23T06:00:44.516Z,19.06
2022-08-23T06:01:44.483Z,19.08
2022-08-23T06:02:44.529Z,19.08
2022-08-23T06:03:44.472Z,19.16
2022-08-23T06:04:44.441Z,19.31
2022-08-23T06:05:44.449Z,19.23
2022-08-23T06:06:44.420Z,19.32
2022-08-23T06:07:44.424Z,19.40
2022-08-23T06:08:44.399Z,19.43
2022-08-23T06:09:44.393Z,19.40
2022-08-23T06:10:44.375Z,19.44
2022-08-23T06:11:44.367Z,19.54
2022-08-23T06:12:44.375Z,19.68
2022-08-23T06:13:44.397Z,19.81
2022-08-23T06:14:44.334Z,19.83
2022-08-23T06:15:44.327Z,19.80
2022-08-23T06:16:44.325Z,19.99
2022-08-23T06:17:44.349Z,20.23
2022-08-23T06:18:44.377Z,20.26
2022-08-23T06:19:44.277Z,20.35
2022-08-23T06:20:44.335Z,20.47
2022-08-23T06:21:44.257Z,20.48
2022-08-23T06:22:44.318Z,20.52
2022-08-23T06:23:44.235Z,20.64
2022-08-23T06:24:44.240Z,20.66
2022-08-23T06:25:44.207Z,20.79
2022-08-23T06:26:44.219Z,20.87
2022-08-23T06:27:44.236Z,20.99
2022-08-23T06:28:44.208Z,20.99
2022-08-23T06:29:44.185Z,21.07
2022-08-23T06:30:44.276Z,21.22
2022-08-23T06:31:44.154Z,21.24
2022-08-23T06:32:44.187Z,21.29
2022-08-23T06:33:44.144Z,21.25
2022-08-23T06:34:44.126Z,21.35
2022-08-23T06:35:44.141Z,21.28
2022-08-23T06:36:44.098Z,21.27
2022-08-23T06:37:44.077Z,21.28
2022-08-23T06:38:44.068Z,21.21
2022-08-23T06:39:44.181Z,21.24
2022-08-23T06:40:44.070Z,21.24
2022-08-23T06:41:44.038Z,21.16
2022-08-23T06:42:44.041Z,21.27
2022-08-23T06:43:44.021Z,21.34
2022-08-23T06:44:44.005Z,21.35
2022-08-23T06:45:43.991Z,21.38
2022-08-23T06:46:45.054Z,21.52
2022-08-23T06:47:43.973Z,21.74
2022-08-23T06:48:43.973Z,21.74
2022-08-23T06:49:57.704Z,21.82
2022-08-23T06:50:47.803Z,21.92
2022-08-23T06:51:43.928Z,22.02
2022-08-23T06:52:43.941Z,22.18
2022-08-23T06:53:43.909Z,22.37
2022-08-23T06:54:43.894Z,22.54
2022-08-23T06:55:43.902Z,22.65
2022-08-23T06:56:43.873Z,22.64
2022-08-23T06:57:43.884Z,22.82
2022-08-23T06:58:43.859Z,22.83
2022-08-23T06:59:43.839Z,22.92
2022-08-23T07:00:43.874Z,22.86
2022-08-23T07:01:46.531Z,22.94
2022-08-23T07:02:43.843Z,23.02
2022-08-23T07:03:44.820Z,23.05
2022-08-23T07:04:43.817Z,23.19
2022-08-23T07:05:43.791Z,23.15
2022-08-23T07:06:43.783Z,23.16
2022-08-23T07:07:44.354Z,23.32
2022-08-23T07:08:43.742Z,23.40
2022-08-23T07:09:43.765Z,23.61
2022-08-23T07:10:43.728Z,23.65
2022-08-23T07:11:43.714Z,23.73
2022-08-23T07:12:43.716Z,23.69
2022-08-23T07:13:43.690Z,23.76
2022-08-23T07:14:43.700Z,23.83
2022-08-23T07:15:43.711Z,23.94
2022-08-23T07:16:44.668Z,23.91
2022-08-23T07:17:43.643Z,24.02
2022-08-23T07:18:43.640Z,23.98
2022-08-23T07:19:43.698Z,23.91
2022-08-23T07:20:43.612Z,23.97
2022-08-23T07:21:43.603Z,24.12
2022-08-23T07:22:43.606Z,24.20
2022-08-23T07:23:46.407Z,24.24
2022-08-23T07:24:43.587Z,24.24
2022-08-23T07:25:43.556Z,24.34
2022-08-23T07:26:43.567Z,24.39
2022-08-23T07:27:43.572Z,24.39
2022-08-23T07:28:43.530Z,24.49
2022-08-23T07:29:43.581Z,24.43
2022-08-23T07:30:45.435Z,24.53
2022-08-23T07:31:43.563Z,24.69
2022-08-23T07:32:43.502Z,24.71
2022-08-23T07:33:44.591Z,24.81
2022-08-23T07:34:43.484Z,24.71
2022-08-23T07:35:43.510Z,24.95
2022-08-23T07:36:43.444Z,24.99
2022-08-23T07:37:43.443Z,25.05
2022-08-23T07:38:43.434Z,25.06
2022-08-23T07:39:43.444Z,25.14
2022-08-23T07:40:43.405Z,25.23
2022-08-23T07:41:43.396Z,25.21
2022-08-23T07:42:43.389Z,25.36
2022-08-23T07:43:43.362Z,25.38
2022-08-23T07:44:43.351Z,25.51
2022-08-23T07:45:43.346Z,25.58
2022-08-23T07:46:43.397Z,25.65
2022-08-23T07:47:49.635Z,25.73
2022-08-23T07:48:53.884Z,25.75
2022-08-23T07:49:44.306Z,25.79
2022-08-23T07:50:49.940Z,25.69
2022-08-23T07:51:44.279Z,25.82
2022-08-23T07:52:43.280Z,25.85
2022-08-23T07:53:46.072Z,26.02
2022-08-23T07:54:48.316Z,26.18
2022-08-23T07:55:44.230Z,26.23
2022-08-23T07:56:43.264Z,26.30
2022-08-23T07:57:43.212Z,26.36
2022-08-23T07:58:43.229Z,26.25
2022-08-23T07:59:43.204Z,26.33
2022-08-23T08:00:43.197Z,26.30
2022-08-23T08:01:43.270Z,26.25
2022-08-23T08:02:43.244Z,26.25
2022-08-23T08:03:43.152Z,26.33
2022-08-23T08:04:43.129Z,26.32
2022-08-23T08:05:43.128Z,26.43
2022-08-23T08:06:43.168Z,26.43
2022-08-23T08:07:43.127Z,26.60
2022-08-23T08:08:43.104Z,26.66
2022-08-23T08:09:43.092Z,26.72
2022-08-23T08:10:43.074Z,26.80
2022-08-23T08:11:43.070Z,26.73
2022-08-23T08:12:43.079Z,26.75
2022-08-23T08:13:43.033Z,26.81
2022-08-23T08:14:43.034Z,26.91
2022-08-23T08:15:43.147Z,26.97
2022-08-23T08:16:43.011Z,26.97
2022-08-23T08:17:43.019Z,27.06
2022-08-23T08:18:43.038Z,27.02
2022-08-23T08:19:42.988Z,27.07
2022-08-23T08:20:42.963Z,27.00
2022-08-23T08:21:42.980Z,26.89
2022-08-23T08:22:47.241Z,26.88
2022-08-23T08:23:43.943Z,26.92
2022-08-23T08:24:42.927Z,26.99
2022-08-23T08:25:42.926Z,27.10
2022-08-23T08:26:42.911Z,27.25
2022-08-23T08:27:42.902Z,27.28
2022-08-23T08:28:42.889Z,27.34
2022-08-23T08:29:42.868Z,27.24
2022-08-23T08:30:42.879Z,27.13
2022-08-23T08:31:42.943Z,27.28
2022-08-23T08:32:47.266Z,27.37
2022-08-23T08:33:42.831Z,27.25
2022-08-23T08:34:42.838Z,27.29
2022-08-23T08:35:42.840Z,27.37
2022-08-23T08:36:42.826Z,27.49
2022-08-23T08:37:42.830Z,27.63
2022-08-23T08:38:47.898Z,27.79
2022-08-23T08:39:43.775Z,28.04
2022-08-23T08:40:42.772Z,28.15
2022-08-23T08:41:42.743Z,28.17
2022-08-23T08:42:42.744Z,28.31
2022-08-23T08:43:42.718Z,28.29
2022-08-23T08:44:42.698Z,28.30
2022-08-23T08:45:42.702Z,28.37
2022-08-23T08:46:43.745Z,28.34
2022-08-23T08:47:42.686Z,28.49
2022-08-23T08:48:42.690Z,28.58
2022-08-23T08:49:42.652Z,28.51
2022-08-23T08:50:42.647Z,28.43
2022-08-23T08:51:42.655Z,28.36
2022-08-23T08:52:42.638Z,28.30
2022-08-23T08:53:42.606Z,28.19
2022-08-23T08:54:46.127Z,28.30
2022-08-23T08:55:43.615Z,28.33
2022-08-23T08:56:42.586Z,28.34
2022-08-23T08:57:42.575Z,28.48
2022-08-23T08:58:42.573Z,28.55
2022-08-23T08:59:42.569Z,28.55
2022-08-23T09:00:42.563Z,28.33
2022-08-23T09:01:42.602Z,28.44
2022-08-23T09:02:42.562Z,28.41
2022-08-23T09:03:43.094Z,28.52
2022-08-23T09:04:42.508Z,28.59
2022-08-23T09:05:42.499Z,28.55
2022-08-23T09:06:42.473Z,28.55
2022-08-23T09:07:42.459Z,28.62
2022-08-23T09:08:42.444Z,28.64
2022-08-23T09:09:42.447Z,28.62
2022-08-23T09:10:42.426Z,28.78
2022-08-23T09:11:42.430Z,28.71
2022-08-23T09:12:42.413Z,28.31
2022-08-23T09:13:46.001Z,28.17
2022-08-23T09:14:42.383Z,28.33
2022-08-23T09:15:42.399Z,28.44
2022-08-23T09:16:42.358Z,28.68
2022-08-23T09:17:43.893Z,28.74
2022-08-23T09:18:42.371Z,28.78
2022-08-23T09:19:42.332Z,28.83
2022-08-23T09:20:42.344Z,28.96
2022-08-23T09:21:42.338Z,28.96
2022-08-23T09:22:42.302Z,29.23
2022-08-23T09:23:42.279Z,29.37
2022-08-23T09:24:42.273Z,29.53
2022-08-23T09:25:42.282Z,29.48
2022-08-23T09:26:43.592Z,29.04
2022-08-23T09:27:42.263Z,28.92
2022-08-23T09:28:42.237Z,28.88
2022-08-23T09:29:42.244Z,28.70
2022-08-23T09:30:42.220Z,28.73
2022-08-23T09:31:42.315Z,28.66
2022-08-23T09:32:42.194Z,28.86
2022-08-23T09:33:42.215Z,29.12
2022-08-23T09:34:42.184Z,29.19
2022-08-23T09:35:42.161Z,29.30
2022-08-23T09:36:42.141Z,29.11
2022-08-23T09:37:42.145Z,28.76
2022-08-23T09:38:43.415Z,28.90
2022-08-23T09:39:42.169Z,28.95
2022-08-23T09:40:42.170Z,29.23
2022-08-23T09:41:42.093Z,29.34
2022-08-23T09:42:42.105Z,29.33
2022-08-23T09:43:42.065Z,29.41
2022-08-23T09:44:42.053Z,29.57
2022-08-23T09:45:42.064Z,29.70
2022-08-23T09:46:42.142Z,29.83
2022-08-23T09:47:44.325Z,30.01
2022-08-23T09:48:42.029Z,30.05
2022-08-23T09:49:42.004Z,30.07
2022-08-23T09:50:41.987Z,30.10
2022-08-23T09:51:42.866Z,30.16
2022-08-23T09:52:41.979Z,30.29
2022-08-23T09:53:41.956Z,30.23
2022-08-23T09:54:46.855Z,30.19
2022-08-23T09:55:42.943Z,30.35
2022-08-23T09:56:41.947Z,30.31
2022-08-23T09:57:41.952Z,30.37
2022-08-23T09:58:41.924Z,30.38
2022-08-23T09:59:41.891Z,30.38
2022-08-23T10:00:41.888Z,30.38
2022-08-23T10:01:41.929Z,30.46
2022-08-23T10:02:41.867Z,30.60
2022-08-23T10:03:41.926Z,30.75
2022-08-23T10:04:41.913Z,30.84
2022-08-23T10:05:41.829Z,30.77
2022-08-23T10:06:41.814Z,30.80
2022-08-23T10:07:42.511Z,30.92
2022-08-23T10:08:43.375Z,30.86
2022-08-23T10:09:41.784Z,30.69
2022-08-23T10:10:41.810Z,30.45
2022-08-23T10:11:41.770Z,30.43
2022-08-23T10:12:41.774Z,30.65
2022-08-23T10:13:41.790Z,30.77
2022-08-23T10:14:43.209Z,30.88
2022-08-23T10:15:41.815Z,30.98
2022-08-23T10:16:41.722Z,31.16
2022-08-23T10:17:41.704Z,31.32
2022-08-23T10:18:41.729Z,31.41
2022-08-23T10:19:41.702Z,31.53
2022-08-23T10:20:41.691Z,31.62
2022-08-23T10:21:41.679Z,31.56
2022-08-23T10:22:41.713Z,31.47
2022-08-23T10:23:41.635Z,31.36
2022-08-23T10:24:41.628Z,31.47
2022-08-23T10:25:41.641Z,31.41
2022-08-23T10:26:41.624Z,31.41
2022-08-23T10:27:41.599Z,31.57
2022-08-23T10:28:41.585Z,31.63
2022-08-23T10:29:41.574Z,31.56
2022-08-23T10:30:41.637Z,31.57
2022-08-23T10:31:41.570Z,31.58
2022-08-23T10:32:41.549Z,31.56
2022-08-23T10:33:41.540Z,31.47
2022-08-23T10:34:41.527Z,31.51
2022-08-23T10:35:41.544Z,31.44
2022-08-23T10:36:41.515Z,31.54
2022-08-23T10:37:41.523Z,31.28
2022-08-23T10:38:41.479Z,31.39
2022-08-23T10:39:41.525Z,31.29
2022-08-23T10:40:41.516Z,31.34
2022-08-23T10:41:41.453Z,31.14
2022-08-23T10:42:41.435Z,31.09
2022-08-23T10:43:41.445Z,31.14
2022-08-23T10:44:41.431Z,31.21
2022-08-23T10:45:48.995Z,31.29
2022-08-23T10:46:41.580Z,31.25
2022-08-23T10:47:41.473Z,31.12
2022-08-23T10:48:41.376Z,31.19
2022-08-23T10:49:41.403Z,31.04
2022-08-23T10:50:41.367Z,30.98
2022-08-23T10:51:42.920Z,31.04
2022-08-23T10:52:41.359Z,31.17
2022-08-23T10:53:41.348Z,31.13
2022-08-23T10:54:41.330Z,31.12
2022-08-23T10:55:41.348Z,31.21
2022-08-23T10:56:48.651Z,31.50
2022-08-23T10:57:42.296Z,31.73
2022-08-23T10:58:41.291Z,31.89
2022-08-23T10:59:41.320Z,32.03
2022-08-23T11:00:41.372Z,32.13
2022-08-23T11:01:41.309Z,32.04
2022-08-23T11:02:41.237Z,32.15
2022-08-23T11:03:41.218Z,32.08
2022-08-23T11:04:41.224Z,32.01
2022-08-23T11:05:41.198Z,32.14
2022-08-23T11:06:41.275Z,32.21
2022-08-23T11:07:41.194Z,32.30
2022-08-23T11:08:45.577Z,32.50
2022-08-23T11:09:42.197Z,32.51
2022-08-23T11:10:41.157Z,32.60
2022-08-23T11:11:42.192Z,32.60
2022-08-23T11:12:41.173Z,32.30
2022-08-23T11:13:41.119Z,32.03
2022-08-23T11:14:41.135Z,32.11
2022-08-23T11:15:44.642Z,31.93
2022-08-23T11:16:41.127Z,32.04
2022-08-23T11:17:41.084Z,32.14
2022-08-23T11:18:41.136Z,32.26
2022-08-23T11:19:41.070Z,32.37
2022-08-23T11:20:41.052Z,32.52
2022-08-23T11:21:41.040Z,32.69
2022-08-23T11:22:41.045Z,32.85
2022-08-23T11:23:41.050Z,32.87
2022-08-23T11:24:41.041Z,32.87
2022-08-23T11:25:41.105Z,32.79
2022-08-23T11:26:40.995Z,32.89
2022-08-23T11:27:40.993Z,32.99
2022-08-23T11:28:40.970Z,33.11
2022-08-23T11:29:41.557Z,33.09
2022-08-23T11:30:40.978Z,32.93
2022-08-23T11:31:40.968Z,32.93
2022-08-23T11:32:40.920Z,32.97
2022-08-23T11:33:40.917Z,33.11
2022-08-23T11:34:40.917Z,33.23
2022-08-23T11:35:43.369Z,33.14
2022-08-23T11:36:40.922Z,33.03
2022-08-23T11:37:40.905Z,32.87
2022-08-23T11:38:40.860Z,32.85
2022-08-23T11:39:40.910Z,32.88
2022-08-23T11:40:40.855Z,32.77
2022-08-23T11:41:40.836Z,32.75
2022-08-23T11:42:40.815Z,32.67
2022-08-23T11:43:40.826Z,32.62
2022-08-23T11:44:40.819Z,32.48
2022-08-23T11:45:40.780Z,32.59
2022-08-23T11:46:40.769Z,32.59
2022-08-23T11:47:40.765Z,32.47
2022-08-23T11:48:43.433Z,32.41
2022-08-23T11:49:40.769Z,32.48
2022-08-23T11:50:40.763Z,32.35
2022-08-23T11:51:40.753Z,32.35
2022-08-23T11:52:40.728Z,32.44
2022-08-23T11:53:40.722Z,32.25
2022-08-23T11:54:40.689Z,32.26
2022-08-23T11:55:40.718Z,32.29
2022-08-23T11:56:44.384Z,32.30
2022-08-23T11:57:41.672Z,32.52
2022-08-23T11:58:40.671Z,32.62
2022-08-23T11:59:41.522Z,32.66
2022-08-23T12:00:40.627Z,32.75
2022-08-23T12:01:40.657Z,32.81
2022-08-23T12:02:40.717Z,32.79
2022-08-23T12:03:40.835Z,32.70
2022-08-23T12:04:40.619Z,32.82
2022-08-23T12:05:40.617Z,32.66
2022-08-23T12:06:40.683Z,32.69
2022-08-23T12:07:40.614Z,32.85
2022-08-23T12:08:40.542Z,32.70
2022-08-23T12:09:40.532Z,32.69
2022-08-23T12:10:40.519Z,32.75
2022-08-23T12:11:40.545Z,32.89
2022-08-23T12:12:45.166Z,33.01
2022-08-23T12:13:40.540Z,33.00
2022-08-23T12:14:40.475Z,33.12
2022-08-23T12:15:41.144Z,33.15
2022-08-23T12:16:44.166Z,33.09
2022-08-23T12:17:40.600Z,33.04
2022-08-23T12:18:40.432Z,32.89
2022-08-23T12:19:41.456Z,32.89
2022-08-23T12:20:40.407Z,32.97
2022-08-23T12:21:40.411Z,32.97
2022-08-23T12:22:40.389Z,32.99
2022-08-23T12:23:40.382Z,33.04
2022-08-23T12:24:40.414Z,33.06
2022-08-23T12:25:40.358Z,33.21
2022-08-23T12:26:40.416Z,33.12
2022-08-23T12:27:40.354Z,32.87
2022-08-23T12:28:40.339Z,32.99
2022-08-23T12:29:40.335Z,32.89
2022-08-23T12:30:44.132Z,32.99
2022-08-23T12:31:40.314Z,33.04
2022-08-23T12:32:40.279Z,33.12
2022-08-23T12:33:40.299Z,33.11
2022-08-23T12:34:40.261Z,32.92
2022-08-23T12:35:40.275Z,32.81
2022-08-23T12:36:40.236Z,32.84
2022-08-23T12:37:40.225Z,32.69
2022-08-23T12:38:40.230Z,32.57
2022-08-23T12:39:40.201Z,32.45
2022-08-23T12:40:42.650Z,32.30
2022-08-23T12:41:40.206Z,32.25
2022-08-23T12:42:40.165Z,32.21
2022-08-23T12:43:40.157Z,32.06
2022-08-23T12:44:40.179Z,31.81
2022-08-23T12:45:40.153Z,31.78
2022-08-23T12:46:40.219Z,31.89
2022-08-23T12:47:43.019Z,31.85
2022-08-23T12:48:40.108Z,31.95
2022-08-23T12:49:40.099Z,31.88
2022-08-23T12:50:40.119Z,31.91
2022-08-23T12:51:40.102Z,32.06
2022-08-23T12:52:40.066Z,32.28
2022-08-23T12:53:44.583Z,32.29
2022-08-23T12:54:41.053Z,32.26
2022-08-23T12:55:40.039Z,32.21
2022-08-23T12:56:40.097Z,32.29
2022-08-23T12:57:40.033Z,32.43
2022-08-23T12:58:40.013Z,32.50
2022-08-23T12:59:40.010Z,32.48
2022-08-23T13:00:40.000Z,32.59
2022-08-23T13:01:40.025Z,32.57
2022-08-23T13:02:40.014Z,32.62
2022-08-23T13:03:39.967Z,32.60
2022-08-23T13:04:39.949Z,32.57
2022-08-23T13:05:39.944Z,32.66
2022-08-23T13:06:39.947Z,32.67
2022-08-23T13:07:39.950Z,32.78
2022-08-23T13:08:39.923Z,32.77
2022-08-23T13:09:39.910Z,32.79
2022-08-23T13:10:39.910Z,32.69
2022-08-23T13:11:39.894Z,32.74
2022-08-23T13:12:39.861Z,32.74
2022-08-23T13:13:39.898Z,32.82
2022-08-23T13:14:39.858Z,32.74
2022-08-23T13:15:39.884Z,32.60
2022-08-23T13:16:39.843Z,32.55
2022-08-23T13:17:39.817Z,32.45
2022-08-23T13:18:39.800Z,32.50
2022-08-23T13:19:39.830Z,32.38
2022-08-23T13:20:39.806Z,32.30
2022-08-23T13:21:40.342Z,32.32
2022-08-23T13:22:39.809Z,32.44
2022-08-23T13:23:39.752Z,32.29
2022-08-23T13:24:39.744Z,32.38
2022-08-23T13:25:39.743Z,32.38
2022-08-23T13:26:39.759Z,32.23
2022-08-23T13:27:39.710Z,32.28
2022-08-23T13:28:39.735Z,32.29
2022-08-23T13:29:39.692Z,32.23
2022-08-23T13:30:39.727Z,32.29
2022-08-23T13:31:39.701Z,32.15
2022-08-23T13:32:39.725Z,32.18
2022-08-23T13:33:41.181Z,32.06
2022-08-23T13:34:39.638Z,32.01
2022-08-23T13:35:39.633Z,31.92
2022-08-23T13:36:39.724Z,31.84
2022-08-23T13:37:39.607Z,31.75
2022-08-23T13:38:39.608Z,31.78
2022-08-23T13:39:39.608Z,31.70
2022-08-23T13:40:39.613Z,31.75
2022-08-23T13:41:39.566Z,31.68
2022-08-23T13:42:39.557Z,31.62
2022-08-23T13:43:39.547Z,31.51
2022-08-23T13:44:39.528Z,31.54
2022-08-23T13:45:39.559Z,31.66
2022-08-23T13:46:39.592Z,31.61
2022-08-23T13:47:39.504Z,31.62
2022-08-23T13:48:39.490Z,31.57
2022-08-23T13:49:39.477Z,31.57
2022-08-23T13:50:39.469Z,31.53
2022-08-23T13:51:39.481Z,31.51
2022-08-23T13:53:03.069Z,31.54
2022-08-23T13:53:40.437Z,31.63
2022-08-23T13:54:39.462Z,31.66
2022-08-23T13:55:39.421Z,31.62
2022-08-23T13:56:39.416Z,31.81
2022-08-23T13:57:39.414Z,31.80
2022-08-23T13:58:39.395Z,31.75
2022-08-23T13:59:39.386Z,31.72
2022-08-23T14:00:39.361Z,31.70
2022-08-23T14:01:40.432Z,31.70
2022-08-23T14:02:39.344Z,31.73
2022-08-23T14:03:39.404Z,31.80
2022-08-23T14:04:39.386Z,31.68
2022-08-23T14:05:39.334Z,31.78
2022-08-23T14:06:39.302Z,31.73
2022-08-23T14:07:39.329Z,31.75
2022-08-23T14:08:39.277Z,31.72
2022-08-23T14:09:39.266Z,31.68
2022-08-23T14:10:39.293Z,31.69
2022-08-23T14:11:39.359Z,31.57
2022-08-23T14:12:39.342Z,31.58
2022-08-23T14:13:39.346Z,31.61
2022-08-23T14:14:39.241Z,31.62
2022-08-23T14:15:56.793Z,31.62
2022-08-23T14:16:40.648Z,31.57
2022-08-23T14:17:39.258Z,31.51
2022-08-23T14:19:15.108Z,31.44
2022-08-23T14:20:32.494Z,31.61
2022-08-23T14:20:47.444Z,31.47
2022-08-23T14:21:40.150Z,31.44
2022-08-23T14:22:40.435Z,31.47
2022-08-23T14:23:39.119Z,31.39
2022-08-23T14:24:39.177Z,31.41
2022-08-23T14:25:39.104Z,31.54
2022-08-23T14:26:39.131Z,31.56
2022-08-23T14:27:40.093Z,31.63
2022-08-23T14:28:42.603Z,31.61
2022-08-23T14:29:40.049Z,31.65
2022-08-23T14:30:39.106Z,31.78
2022-08-23T14:31:39.032Z,31.81
2022-08-23T14:32:39.048Z,31.86
2022-08-23T14:33:39.030Z,31.80
2022-08-23T14:34:39.002Z,31.92
2022-08-23T14:35:38.991Z,31.81
2022-08-23T14:36:39.006Z,31.92
2022-08-23T14:38:39.962Z,31.86
2022-08-23T14:39:38.975Z,31.84
2022-08-23T14:40:38.937Z,31.80
2022-08-23T14:41:38.926Z,31.73
2022-08-23T14:42:38.917Z,31.76
2022-08-23T14:43:38.932Z,31.72
2022-08-23T14:44:38.919Z,31.72
2022-08-23T14:45:38.972Z,31.76
2022-08-23T14:46:38.933Z,31.78
2022-08-23T14:47:38.865Z,31.81
2022-08-23T14:48:38.872Z,31.75
2022-08-23T14:49:38.846Z,31.73
2022-08-23T14:50:38.856Z,31.76
2022-08-23T14:51:38.829Z,31.73
2022-08-23T14:52:38.822Z,31.78
2022-08-23T14:53:38.811Z,31.80
2022-08-23T14:54:38.791Z,31.80
2022-08-23T14:55:38.787Z,31.66
2022-08-23T14:56:38.804Z,31.70
2022-08-23T14:57:38.788Z,31.62
2022-08-23T14:58:38.748Z,31.56
2022-08-23T14:59:38.770Z,31.54
2022-08-23T15:00:38.753Z,31.54
2022-08-23T15:01:38.779Z,31.51
2022-08-23T15:02:38.709Z,31.46
2022-08-23T15:03:38.758Z,31.43
2022-08-23T15:04:38.681Z,31.46
2022-08-23T15:05:38.683Z,31.46
2022-08-23T15:06:46.352Z,31.48
2022-08-23T15:07:39.653Z,31.47
2022-08-23T15:08:38.673Z,31.32
2022-08-23T15:09:38.657Z,31.26
2022-08-23T15:12:57.913Z,31.20
2022-08-23T15:13:54.732Z,31.34
2022-08-23T15:14:39.573Z,31.21
2022-08-23T15:15:38.592Z,31.14
2022-08-23T15:16:38.616Z,31.26
2022-08-23T15:17:38.562Z,31.29
2022-08-23T15:18:38.530Z,31.26
2022-08-23T15:19:39.750Z,31.26
2022-08-23T15:20:38.527Z,31.34
2022-08-23T15:21:38.509Z,31.12
2022-08-23T15:22:44.388Z,31.13
2022-08-23T15:23:39.509Z,31.09
2022-08-23T15:24:38.474Z,31.12
2022-08-23T15:25:38.499Z,31.14
2022-08-23T15:26:38.479Z,31.21
2022-08-23T15:27:38.441Z,31.14
2022-08-23T15:28:38.440Z,31.20
2022-08-23T15:29:38.431Z,31.12
2022-08-23T15:30:38.472Z,31.25
2022-08-23T15:31:38.418Z,31.12
2022-08-23T15:32:38.413Z,31.13
2022-08-23T15:33:38.397Z,31.02
2022-08-23T15:34:38.389Z,31.02
2022-08-23T15:35:38.431Z,31.12
2022-08-23T15:36:38.364Z,31.06
2022-08-23T15:37:38.362Z,30.92
2022-08-23T15:38:38.339Z,30.97
2022-08-23T15:39:38.319Z,30.94
2022-08-23T15:40:38.311Z,30.92
2022-08-23T15:41:38.319Z,30.94
2022-08-23T15:42:38.301Z,30.91
2022-08-23T15:43:38.287Z,30.86
2022-08-23T15:44:38.318Z,30.80
2022-08-23T15:45:38.350Z,30.91
2022-08-23T15:46:38.235Z,30.86
2022-08-23T15:47:38.303Z,30.89
2022-08-23T15:48:38.220Z,30.89
2022-08-23T15:49:38.227Z,30.82
2022-08-23T15:50:38.206Z,30.82
2022-08-23T15:51:38.187Z,30.76
2022-08-23T15:52:38.179Z,30.72
2022-08-23T15:53:38.192Z,30.82
2022-08-23T15:54:38.159Z,30.77
2022-08-23T15:55:38.145Z,30.79
2022-08-23T15:56:38.138Z,30.77
2022-08-23T15:57:38.145Z,30.80
2022-08-23T15:58:38.123Z,30.75
2022-08-23T15:59:38.110Z,30.62
2022-08-23T16:00:38.129Z,30.58
2022-08-23T16:01:38.127Z,30.54
2022-08-23T16:03:04.211Z,30.60
2022-08-23T16:03:39.150Z,30.47
2022-08-23T16:04:38.055Z,30.51
2022-08-23T16:05:38.045Z,30.47
2022-08-23T16:06:38.085Z,30.51
2022-08-23T16:07:38.036Z,30.51
2022-08-23T16:08:38.017Z,30.31
2022-08-23T16:09:37.999Z,30.37
2022-08-23T16:10:38.004Z,30.38
2022-08-23T16:11:37.998Z,30.43
2022-08-23T16:12:38.028Z,30.39
2022-08-23T16:13:37.953Z,30.27
2022-08-23T16:14:37.969Z,30.24
2022-08-23T16:15:37.940Z,30.27
2022-08-23T16:16:38.027Z,30.22
2022-08-23T16:17:37.923Z,30.16
2022-08-23T16:18:37.912Z,30.17
2022-08-23T16:19:37.996Z,30.11
2022-08-23T16:20:37.891Z,30.02
2022-08-23T16:21:37.883Z,30.00
2022-08-23T16:22:37.867Z,29.86
2022-08-23T16:23:37.866Z,29.87
2022-08-23T16:24:37.848Z,29.78
2022-08-23T16:25:37.876Z,29.82
2022-08-23T16:26:37.855Z,29.73
2022-08-23T16:27:37.819Z,29.67
2022-08-23T16:28:37.822Z,29.68
2022-08-23T16:29:37.810Z,29.63
2022-08-23T16:30:37.887Z,29.70
2022-08-23T16:31:39.203Z,29.57
2022-08-23T16:32:37.758Z,29.45
2022-08-23T16:33:37.761Z,29.37
2022-08-23T16:34:37.734Z,29.36
2022-08-23T16:35:37.720Z,29.34
2022-08-23T16:36:37.747Z,29.31
2022-08-23T16:37:37.720Z,29.24
2022-08-23T16:38:37.703Z,29.23
2022-08-23T16:39:37.708Z,29.21
2022-08-23T16:40:37.668Z,29.18
2022-08-23T16:41:37.660Z,29.18
2022-08-23T16:42:37.654Z,29.09
2022-08-23T16:43:37.680Z,29.14
2022-08-23T16:44:37.646Z,29.14
2022-08-23T16:45:37.710Z,29.09
2022-08-23T16:46:46.181Z,29.05
2022-08-23T16:47:37.594Z,29.05
2022-08-23T16:48:37.586Z,28.98
2022-08-23T16:49:37.578Z,28.88
2022-08-23T16:50:37.557Z,28.93
2022-08-23T16:51:37.567Z,28.92
2022-08-23T16:52:37.548Z,28.81
2022-08-23T16:53:37.542Z,28.70
2022-08-23T16:54:37.516Z,28.71
2022-08-23T16:55:37.505Z,28.62
2022-08-23T16:56:37.499Z,28.64
2022-08-23T16:57:37.497Z,28.61
2022-08-23T16:58:37.489Z,28.55
2022-08-23T16:59:40.524Z,28.56
2022-08-23T17:00:37.450Z,28.52
2022-08-23T17:01:37.496Z,28.49
2022-08-23T17:02:37.496Z,28.51
2022-08-23T17:03:37.424Z,28.54
2022-08-23T17:04:37.405Z,28.49
2022-08-23T17:05:37.392Z,28.54
2022-08-23T17:06:37.407Z,28.54
2022-08-23T17:07:37.383Z,28.44
2022-08-23T17:08:37.402Z,28.49
2022-08-23T17:09:37.366Z,28.51
2022-08-23T17:10:37.377Z,28.44
2022-08-23T17:11:37.342Z,28.49
2022-08-23T17:12:37.331Z,28.46
2022-08-23T17:13:37.314Z,28.33
2022-08-23T17:14:37.312Z,28.36
2022-08-23T17:15:37.322Z,28.41
2022-08-23T17:16:37.367Z,28.27
2022-08-23T17:17:37.278Z,28.25
2022-08-23T17:18:37.280Z,28.27
2022-08-23T17:19:37.256Z,28.30
2022-08-23T17:20:37.260Z,28.21
2022-08-23T17:21:37.236Z,28.29
2022-08-23T17:22:37.231Z,28.22
2022-08-23T17:23:40.557Z,28.19
2022-08-23T17:24:37.238Z,28.24
2022-08-23T17:25:37.191Z,28.11